createdAt,value
2023-02-22T00:01:35.366Z,5.20
2023-02-22T00:03:08.107Z,5.20
2023-02-22T00:04:41.187Z,5.20
2023-02-22T00:06:18.772Z,5.10
2023-02-22T00:07:51.869Z,5.10
2023-02-22T00:09:24.833Z,5.10
2023-02-22T00:10:57.882Z,5.10
2023-02-22T00:12:31.093Z,5.10
2023-02-22T00:14:04.072Z,5.10
2023-02-22T00:15:37.542Z,5.10
2023-02-22T00:17:13.508Z,5.10
2023-02-22T00:18:46.692Z,5.10
2023-02-22T00:20:19.925Z,5.10
2023-02-22T00:21:54.075Z,4.50
2023-02-22T00:23:29.320Z,5.10
2023-02-22T00:25:01.401Z,5.10
2023-02-22T00:26:35.106Z,5.00
2023-02-22T00:28:08.232Z,5.00
2023-02-22T00:29:45.647Z,4.90
2023-02-22T00:31:19.289Z,4.90
2023-02-22T00:32:56.809Z,4.90
2023-02-22T00:34:29.813Z,4.90
2023-02-22T00:36:02.932Z,4.80
2023-02-22T00:37:36.592Z,4.80
2023-02-22T00:39:09.993Z,4.80
2023-02-22T00:40:42.857Z,4.70
2023-02-22T00:42:15.100Z,4.80
2023-02-22T00:43:49.158Z,4.80
2023-02-22T00:45:23.241Z,4.80
2023-02-22T00:46:56.365Z,4.80
2023-02-22T00:48:30.716Z,4.80
2023-02-22T00:50:04.112Z,4.80
2023-02-22T00:51:37.023Z,4.80
2023-02-22T00:53:10.234Z,4.80
2023-02-22T00:54:43.260Z,4.70
2023-02-22T00:56:16.261Z,4.70
2023-02-22T00:57:49.932Z,4.70
2023-02-22T00:59:21.942Z,4.70
2023-02-22T01:00:54.945Z,4.70
2023-02-22T01:02:28.269Z,4.70
2023-02-22T01:04:02.571Z,4.70
2023-02-22T01:05:35.219Z,3.70
2023-02-22T01:07:08.656Z,4.60
2023-02-22T01:08:45.953Z,4.60
2023-02-22T01:10:21.503Z,4.50
2023-02-22T01:11:56.225Z,4.50
2023-02-22T01:13:29.168Z,4.50
2023-02-22T01:15:01.744Z,4.50
2023-02-22T01:16:35.477Z,4.50
2023-02-22T01:18:09.319Z,4.50
2023-02-22T01:19:43.707Z,4.50
2023-02-22T01:21:16.962Z,4.50
2023-02-22T01:22:49.992Z,4.40
2023-02-22T01:24:22.989Z,4.40
2023-02-22T01:25:56.154Z,4.40
2023-02-22T01:27:29.141Z,4.30
2023-02-22T01:29:02.204Z,4.30
2023-02-22T01:30:36.094Z,3.20
2023-02-22T01:32:12.007Z,4.30
2023-02-22T01:33:45.054Z,4.30
2023-02-22T01:35:20.358Z,4.30
2023-02-22T01:36:53.280Z,4.20
2023-02-22T01:38:26.224Z,4.20
2023-02-22T01:39:58.478Z,4.20
2023-02-22T01:41:31.470Z,4.20
2023-02-22T01:43:06.386Z,4.20
2023-02-22T01:44:41.560Z,4.20
2023-02-22T01:46:23.409Z,6.00
2023-02-22T01:47:56.525Z,4.20
2023-02-22T01:49:33.275Z,4.20
2023-02-22T01:51:11.606Z,4.20
2023-02-22T01:52:43.662Z,4.10
2023-02-22T01:54:20.666Z,4.10
2023-02-22T01:55:54.197Z,4.10
2023-02-22T01:57:32.272Z,4.10
2023-02-22T01:59:09.683Z,4.10
2023-02-22T02:00:41.958Z,4.00
2023-02-22T02:02:16.378Z,4.00
2023-02-22T02:03:50.428Z,4.00
2023-02-22T02:05:24.683Z,3.90
2023-02-22T02:07:02.730Z,3.90
2023-02-22T02:08:40.052Z,3.90
2023-02-22T02:10:15.501Z,3.90
2023-02-22T02:11:50.265Z,3.90
2023-02-22T02:13:22.487Z,3.80
2023-02-22T02:15:15.466Z,3.80
2023-02-22T02:16:52.046Z,3.20
2023-02-22T02:18:26.354Z,3.80
2023-02-22T02:20:18.958Z,3.10
2023-02-22T02:22:13.031Z,3.80
2023-02-22T02:24:09.062Z,3.80
2023-02-22T02:26:11.983Z,3.70
2023-02-22T02:28:02.692Z,3.70
2023-02-22T02:30:02.230Z,3.70
2023-02-22T02:31:58.571Z,3.70
2023-02-22T02:33:35.406Z,3.60
2023-02-22T02:35:13.063Z,3.60
2023-02-22T02:36:53.682Z,3.60
2023-02-22T02:38:35.029Z,3.60
2023-02-22T02:40:18.957Z,3.60
2023-02-22T02:41:52.737Z,3.60
2023-02-22T02:43:33.186Z,3.60
2023-02-22T02:45:09.980Z,3.70
2023-02-22T02:46:49.862Z,3.70
2023-02-22T02:48:28.292Z,3.80
2023-02-22T02:50:06.696Z,3.80
2023-02-22T02:51:42.934Z,3.80
2023-02-22T02:53:22.681Z,5.20
2023-02-22T02:54:56.788Z,3.50
2023-02-22T02:56:30.904Z,3.90
2023-02-22T02:58:04.767Z,3.90
2023-02-22T02:59:39.242Z,3.90
2023-02-22T03:01:19.140Z,3.90
2023-02-22T03:03:06.668Z,3.90
2023-02-22T03:04:54.223Z,3.80
2023-02-22T03:06:51.349Z,3.80
2023-02-22T03:08:33.757Z,3.80
2023-02-22T03:10:23.856Z,3.80
2023-02-22T03:12:08.931Z,3.80
2023-02-22T03:13:51.337Z,3.70
2023-02-22T03:15:35.177Z,3.70
2023-02-22T03:17:12.339Z,3.70
2023-02-22T03:18:52.054Z,3.70
2023-02-22T03:20:34.214Z,3.70
2023-02-22T03:22:14.086Z,3.60
2023-02-22T03:23:51.670Z,3.60
2023-02-22T03:25:33.979Z,2.80
2023-02-22T03:27:11.662Z,3.50
2023-02-22T03:28:48.996Z,3.60
2023-02-22T03:30:27.188Z,3.50
2023-02-22T03:32:02.413Z,3.50
2023-02-22T03:33:42.308Z,3.50
2023-02-22T03:35:21.779Z,3.50
2023-02-22T03:37:00.621Z,3.40
2023-02-22T03:38:37.662Z,3.40
2023-02-22T03:40:16.368Z,3.40
2023-02-22T03:41:51.627Z,3.40
2023-02-22T03:43:29.988Z,3.40
2023-02-22T03:45:05.695Z,3.40
2023-02-22T03:46:41.409Z,3.40
2023-02-22T03:48:20.571Z,3.40
2023-02-22T03:49:58.759Z,3.30
2023-02-22T03:51:31.921Z,3.30
2023-02-22T03:53:07.508Z,3.30
2023-02-22T03:54:41.357Z,2.90
2023-02-22T03:56:20.082Z,3.40
2023-02-22T03:57:56.353Z,3.40
2023-02-22T03:59:29.458Z,3.40
2023-02-22T04:01:03.556Z,3.50
2023-02-22T04:02:35.920Z,3.50
2023-02-22T04:04:09.106Z,4.60
2023-02-22T04:05:42.275Z,3.50
2023-02-22T04:07:14.964Z,3.50
2023-02-22T04:08:49.386Z,3.50
2023-02-22T04:10:22.603Z,3.60
2023-02-22T04:11:55.741Z,3.50
2023-02-22T04:13:29.143Z,3.60
2023-02-22T04:15:01.033Z,3.70
2023-02-22T04:16:34.285Z,3.60
2023-02-22T04:18:06.577Z,3.60
2023-02-22T04:19:39.894Z,3.50
2023-02-22T04:21:14.960Z,3.50
2023-02-22T04:22:51.298Z,3.50
2023-02-22T04:24:25.726Z,3.50
2023-02-22T04:25:59.092Z,3.50
2023-02-22T04:27:32.009Z,3.40
2023-02-22T04:29:04.771Z,3.50
2023-02-22T04:30:37.962Z,3.50
2023-02-22T04:32:10.349Z,3.50
2023-02-22T04:33:43.727Z,3.50
2023-02-22T04:37:03.594Z,3.50
2023-02-22T04:38:36.763Z,3.50
2023-02-22T04:40:11.997Z,3.50
2023-02-22T04:41:44.050Z,3.60
2023-02-22T04:43:17.212Z,3.50
2023-02-22T04:44:50.417Z,3.60
2023-02-22T04:46:23.567Z,3.60
2023-02-22T04:47:56.568Z,3.60
2023-02-22T04:49:28.524Z,3.10
2023-02-22T04:51:01.639Z,3.70
2023-02-22T04:52:34.632Z,3.70
2023-02-22T04:54:06.744Z,3.70
2023-02-22T04:55:41.156Z,3.60
2023-02-22T04:57:15.303Z,3.60
2023-02-22T04:58:48.705Z,3.50
2023-02-22T05:00:22.576Z,3.50
2023-02-22T05:01:55.579Z,3.50
2023-02-22T05:03:28.512Z,3.50
2023-02-22T05:05:01.447Z,3.50
2023-02-22T05:06:33.710Z,3.40
2023-02-22T05:08:06.698Z,3.50
2023-02-22T05:09:39.693Z,3.50
2023-02-22T05:11:14.987Z,3.50
2023-02-22T05:12:48.203Z,3.50
2023-02-22T05:14:21.180Z,3.50
2023-02-22T05:15:54.423Z,3.40
2023-02-22T05:17:26.479Z,3.50
2023-02-22T05:18:59.371Z,3.50
2023-02-22T05:20:34.265Z,3.40
2023-02-22T05:22:07.278Z,3.40
2023-02-22T05:23:40.290Z,3.40
2023-02-22T05:25:13.240Z,3.40
2023-02-22T05:26:47.877Z,3.40
2023-02-22T05:28:20.863Z,3.40
2023-02-22T05:29:53.839Z,3.40
2023-02-22T05:31:26.832Z,3.30
2023-02-22T05:33:00.215Z,3.30
2023-02-22T05:34:33.408Z,3.40
2023-02-22T05:36:07.688Z,3.40
2023-02-22T05:37:40.655Z,3.40
2023-02-22T05:39:13.668Z,3.40
2023-02-22T05:40:46.899Z,3.30
2023-02-22T05:42:21.452Z,3.30
2023-02-22T05:43:54.388Z,2.30
2023-02-22T05:45:28.965Z,3.00
2023-02-22T05:47:01.950Z,3.40
2023-02-22T05:48:35.454Z,3.40
2023-02-22T05:50:08.976Z,3.50
2023-02-22T05:51:42.083Z,3.50
2023-02-22T05:53:14.236Z,3.50
2023-02-22T05:54:47.185Z,3.50
2023-02-22T05:56:24.693Z,3.50
2023-02-22T05:57:59.063Z,3.40
2023-02-22T05:59:32.055Z,3.40
2023-02-22T06:01:05.150Z,3.50
2023-02-22T06:02:38.084Z,3.40
2023-02-22T06:04:11.125Z,3.40
2023-02-22T06:05:44.147Z,3.40
2023-02-22T06:07:17.436Z,3.40
2023-02-22T06:08:50.694Z,3.40
2023-02-22T06:10:24.044Z,3.40
2023-02-22T06:11:56.756Z,3.50
2023-02-22T06:13:31.197Z,3.40
2023-02-22T06:15:04.376Z,3.40
2023-02-22T06:16:37.404Z,3.40
2023-02-22T06:18:10.964Z,3.30
2023-02-22T06:19:43.841Z,3.30
2023-02-22T06:21:17.488Z,3.30
2023-02-22T06:22:51.565Z,3.20
2023-02-22T06:24:24.943Z,3.20
2023-02-22T06:25:57.734Z,3.20
2023-02-22T06:27:32.429Z,3.20
2023-02-22T06:29:06.976Z,3.20
2023-02-22T06:30:42.981Z,3.10
2023-02-22T06:32:16.098Z,3.20
2023-02-22T06:33:49.240Z,3.10
2023-02-22T06:35:23.184Z,3.10
2023-02-22T06:36:56.151Z,3.20
2023-02-22T06:38:29.145Z,3.10
2023-02-22T06:40:05.576Z,3.20
2023-02-22T06:41:39.341Z,3.20
2023-02-22T06:43:12.461Z,3.20
2023-02-22T06:44:46.938Z,3.20
2023-02-22T06:46:21.130Z,3.20
2023-02-22T06:47:54.472Z,3.20
2023-02-22T06:49:27.803Z,3.30
2023-02-22T06:51:00.808Z,3.30
2023-02-22T06:52:33.775Z,3.30
2023-02-22T06:54:09.301Z,3.30
2023-02-22T06:55:42.279Z,3.40
2023-02-22T06:57:15.281Z,3.50
2023-02-22T06:58:49.403Z,3.50
2023-02-22T07:00:25.736Z,3.50
2023-02-22T07:01:59.430Z,3.60
2023-02-22T07:03:32.443Z,3.70
2023-02-22T07:05:05.706Z,3.70
2023-02-22T07:06:38.943Z,3.80
2023-02-22T07:08:12.596Z,3.80
2023-02-22T07:09:47.936Z,3.80
2023-02-22T07:11:20.948Z,3.80
2023-02-22T07:12:53.950Z,3.90
2023-02-22T07:14:27.250Z,3.90
2023-02-22T07:16:02.041Z,4.00
2023-02-22T07:17:35.089Z,4.10
2023-02-22T07:19:08.063Z,4.10
2023-02-22T07:20:41.080Z,4.20
2023-02-22T07:22:13.995Z,4.20
2023-02-22T07:23:53.037Z,4.30
2023-02-22T07:25:26.488Z,4.30
2023-02-22T07:27:01.498Z,4.30
2023-02-22T07:28:34.457Z,4.40
2023-02-22T07:30:08.985Z,4.50
2023-02-22T07:31:43.437Z,4.50
2023-02-22T07:33:16.555Z,4.60
2023-02-22T07:34:49.549Z,4.60
2023-02-22T07:36:22.635Z,4.70
2023-02-22T07:37:56.207Z,4.70
2023-02-22T07:39:29.366Z,4.80
2023-02-22T07:41:02.604Z,4.90
2023-02-22T07:42:50.926Z,4.90
2023-02-22T07:44:24.000Z,5.10
2023-02-22T07:45:58.911Z,5.10
2023-02-22T07:47:33.449Z,5.20
2023-02-22T07:49:06.497Z,5.30
2023-02-22T07:50:39.920Z,5.30
2023-02-22T07:52:12.741Z,5.40
2023-02-22T07:53:45.883Z,5.40
2023-02-22T07:55:21.289Z,5.50
2023-02-22T07:56:54.236Z,5.50
2023-02-22T07:58:29.346Z,5.60
2023-02-22T08:00:02.360Z,5.60
2023-02-22T08:01:37.354Z,5.70
2023-02-22T08:03:13.704Z,5.80
2023-02-22T08:04:46.777Z,5.90
2023-02-22T08:06:21.014Z,5.90
2023-02-22T08:07:54.281Z,6.00
2023-02-22T08:09:27.221Z,6.10
2023-02-22T08:11:00.463Z,6.10
2023-02-22T08:12:33.629Z,6.20
2023-02-22T08:14:06.625Z,6.30
2023-02-22T08:15:40.733Z,6.40
2023-02-22T08:17:13.922Z,6.50
2023-02-22T08:18:48.412Z,6.60
2023-02-22T08:20:21.700Z,6.60
2023-02-22T08:21:54.700Z,6.70
2023-02-22T08:23:27.819Z,6.80
2023-02-22T08:25:00.856Z,8.00
2023-02-22T08:26:33.835Z,7.00
2023-02-22T08:28:08.686Z,7.10
2023-02-22T08:29:41.783Z,7.30
2023-02-22T08:31:14.889Z,7.30
2023-02-22T08:32:48.291Z,7.40
2023-02-22T08:34:22.541Z,7.50
2023-02-22T08:35:56.176Z,7.60
2023-02-22T08:37:29.171Z,7.60
2023-02-22T08:39:02.179Z,7.80
2023-02-22T08:40:36.937Z,7.80
2023-02-22T08:42:10.706Z,7.90
2023-02-22T08:43:43.713Z,7.90
2023-02-22T08:45:17.317Z,8.00
2023-02-22T08:46:51.449Z,8.10
2023-02-22T08:48:24.480Z,8.10
2023-02-22T08:49:59.109Z,8.20
2023-02-22T08:51:36.106Z,8.30
2023-02-22T08:53:10.548Z,8.40
2023-02-22T08:54:43.565Z,8.60
2023-02-22T08:56:16.540Z,8.70
2023-02-22T08:57:51.573Z,8.80
2023-02-22T08:59:50.027Z,8.90
2023-02-22T09:01:32.688Z,9.00
2023-02-22T09:03:07.851Z,9.10
2023-02-22T09:04:40.807Z,9.20
2023-02-22T09:06:15.246Z,9.20
2023-02-22T09:07:48.613Z,9.30
2023-02-22T09:09:21.870Z,9.30
2023-02-22T09:10:55.153Z,9.40
2023-02-22T09:12:28.127Z,9.40
2023-02-22T09:14:01.222Z,9.50
2023-02-22T09:15:36.246Z,9.50
2023-02-22T09:17:11.196Z,9.50
2023-02-22T09:18:44.712Z,9.60
2023-02-22T09:20:19.535Z,9.60
2023-02-22T09:21:57.768Z,9.70
2023-02-22T09:23:30.764Z,9.70
2023-02-22T09:25:16.000Z,9.80
2023-02-22T09:26:54.530Z,9.90
2023-02-22T09:28:29.254Z,9.90
2023-02-22T09:30:03.185Z,10.00
2023-02-22T09:31:37.274Z,10.00
2023-02-22T09:33:12.145Z,10.10
2023-02-22T09:34:45.915Z,10.10
2023-02-22T09:36:21.782Z,10.20
2023-02-22T09:37:58.213Z,10.30
2023-02-22T09:39:35.421Z,10.30
2023-02-22T09:41:15.700Z,10.30
2023-02-22T09:42:57.738Z,10.40
2023-02-22T09:44:38.005Z,10.50
2023-02-22T09:46:26.310Z,10.50
2023-02-22T09:48:15.202Z,10.60
2023-02-22T09:50:02.371Z,10.60
2023-02-22T09:51:41.243Z,10.70
2023-02-22T09:53:29.666Z,10.70
2023-02-22T09:55:10.225Z,10.70
2023-02-22T09:56:46.827Z,10.80
2023-02-22T09:58:24.222Z,10.80
2023-02-22T10:00:12.860Z,10.80
2023-02-22T10:01:49.779Z,10.90
2023-02-22T10:03:29.258Z,11.00
2023-02-22T10:05:06.680Z,11.00
2023-02-22T10:06:43.141Z,11.10
2023-02-22T10:08:19.943Z,11.20
2023-02-22T10:09:56.529Z,11.20
2023-02-22T10:11:52.307Z,11.30
2023-02-22T10:13:34.807Z,11.40
2023-02-22T10:15:26.729Z,11.50
2023-02-22T10:17:11.664Z,11.60
2023-02-22T10:19:17.542Z,11.60
2023-02-22T10:20:56.192Z,11.80
2023-02-22T10:22:51.485Z,11.90
2023-02-22T10:24:39.942Z,12.00
2023-02-22T10:26:17.405Z,12.20
2023-02-22T10:27:57.485Z,12.30
2023-02-22T10:29:36.377Z,12.40
2023-02-22T10:31:14.711Z,12.50
2023-02-22T10:32:51.567Z,12.50
2023-02-22T10:34:28.222Z,12.60
2023-02-22T10:36:02.640Z,12.70
2023-02-22T10:37:36.184Z,12.70
2023-02-22T10:39:21.800Z,12.80
2023-02-22T10:40:59.178Z,12.90
2023-02-22T10:42:32.708Z,13.00
2023-02-22T10:44:05.917Z,13.10
2023-02-22T10:45:39.029Z,13.20
2023-02-22T10:47:16.654Z,13.30
2023-02-22T10:48:54.402Z,13.40
2023-02-22T10:50:29.538Z,13.50
2023-02-22T10:52:04.553Z,13.60
2023-02-22T10:53:39.416Z,13.70
2023-02-22T10:55:16.144Z,13.80
2023-02-22T10:56:53.906Z,13.80
2023-02-22T10:58:27.046Z,13.90
2023-02-22T11:00:14.505Z,13.90
2023-02-22T11:01:47.601Z,13.90
2023-02-22T11:03:23.188Z,13.90
2023-02-22T11:04:58.679Z,14.00
2023-02-22T11:06:32.468Z,14.10
2023-02-22T11:08:26.796Z,14.10
2023-02-22T11:10:00.781Z,14.20
2023-02-22T11:11:34.090Z,14.20
2023-02-22T11:13:18.611Z,14.20
2023-02-22T11:14:51.942Z,14.10
2023-02-22T11:16:28.157Z,14.10
2023-02-22T11:18:01.893Z,14.10
2023-02-22T11:19:36.432Z,14.10
2023-02-22T11:21:11.646Z,14.10
2023-02-22T11:22:44.657Z,14.00
2023-02-22T11:26:02.388Z,14.00
2023-02-22T11:27:41.581Z,14.00
2023-02-22T11:29:23.270Z,14.10
2023-02-22T11:30:58.131Z,14.10
2023-02-22T11:32:31.095Z,14.20
2023-02-22T11:34:05.290Z,14.20
2023-02-22T11:35:50.250Z,14.30
2023-02-22T11:37:33.451Z,14.30
2023-02-22T11:39:11.520Z,14.20
2023-02-22T11:40:45.439Z,14.20
2023-02-22T11:42:26.551Z,14.20
2023-02-22T11:44:24.601Z,14.20
2023-02-22T11:46:02.399Z,14.30
2023-02-22T11:47:35.955Z,14.30
2023-02-22T11:49:12.063Z,14.50
2023-02-22T11:51:00.158Z,14.50
2023-02-22T11:52:38.884Z,14.70
2023-02-22T11:54:29.114Z,14.70
2023-02-22T11:56:16.106Z,14.80
2023-02-22T11:58:01.626Z,14.80
2023-02-22T11:59:40.827Z,14.60
2023-02-22T12:01:22.267Z,14.60
2023-02-22T12:03:19.963Z,14.60
2023-02-22T12:05:09.192Z,14.70
2023-02-22T12:06:52.649Z,14.80
2023-02-22T12:08:33.921Z,14.90
2023-02-22T12:10:19.717Z,15.00
2023-02-22T12:12:04.446Z,15.20
2023-02-22T12:13:54.809Z,15.30
2023-02-22T12:15:37.220Z,15.30
2023-02-22T12:17:27.289Z,15.40
2023-02-22T12:19:13.206Z,15.50
2023-02-22T12:20:49.485Z,15.60
2023-02-22T12:22:26.770Z,15.70
2023-02-22T12:24:04.960Z,15.70
2023-02-22T12:25:41.232Z,15.80
2023-02-22T12:27:20.072Z,15.80
2023-02-22T12:28:59.280Z,15.90
2023-02-22T12:30:39.161Z,15.90
2023-02-22T12:32:17.200Z,15.90
2023-02-22T12:33:56.526Z,16.10
2023-02-22T12:35:34.795Z,16.10
2023-02-22T12:37:17.151Z,16.20
2023-02-22T12:38:56.037Z,16.20
2023-02-22T12:40:35.789Z,16.20
2023-02-22T12:42:16.473Z,16.20
2023-02-22T12:43:55.429Z,16.10
2023-02-22T12:45:36.292Z,16.20
2023-02-22T12:47:16.387Z,16.10
2023-02-22T12:48:55.797Z,16.10
2023-02-22T12:50:34.344Z,16.10
2023-02-22T12:52:21.558Z,16.10
2023-02-22T12:54:03.256Z,16.10
2023-02-22T12:55:45.559Z,16.20
2023-02-22T12:57:25.806Z,16.30
2023-02-22T12:59:04.326Z,16.40
2023-02-22T13:00:45.720Z,16.50
2023-02-22T13:02:23.645Z,16.60
2023-02-22T13:08:20.255Z,16.50
2023-02-22T13:10:26.220Z,16.50
2023-02-22T13:12:07.340Z,16.50
2023-02-22T13:13:53.547Z,16.60
2023-02-22T13:15:33.824Z,16.60
2023-02-22T13:17:20.872Z,16.60
2023-02-22T13:19:03.755Z,16.70
2023-02-22T13:20:41.856Z,16.80
2023-02-22T13:22:20.090Z,16.90
2023-02-22T13:24:03.604Z,16.90
2023-02-22T13:25:42.321Z,17.00
2023-02-22T13:27:19.305Z,17.10
2023-02-22T13:28:57.451Z,17.00
2023-02-22T13:30:37.908Z,17.10
2023-02-22T13:32:24.729Z,17.10
2023-02-22T13:34:23.555Z,17.10
2023-02-22T13:36:15.328Z,17.10
2023-02-22T13:38:23.718Z,17.30
2023-02-22T13:40:29.073Z,17.40
2023-02-22T13:42:30.662Z,17.40
2023-02-22T13:44:24.143Z,17.50
2023-02-22T13:46:23.584Z,17.60
2023-02-22T13:48:23.839Z,17.60
2023-02-22T13:50:18.785Z,17.60
2023-02-22T13:51:54.051Z,17.40
2023-02-22T13:53:30.135Z,17.30
2023-02-22T13:55:10.865Z,17.20
2023-02-22T13:56:45.071Z,17.10
2023-02-22T13:58:18.111Z,17.00
2023-02-22T14:00:22.808Z,17.10
2023-02-22T14:01:56.132Z,17.10
2023-02-22T14:03:36.328Z,17.00
2023-02-22T14:05:49.658Z,17.00
2023-02-22T14:07:56.269Z,16.90
2023-02-22T14:09:48.264Z,16.80
2023-02-22T14:11:57.743Z,16.80
2023-02-22T14:13:33.185Z,16.70
2023-02-22T14:15:32.742Z,16.60
2023-02-22T14:17:27.311Z,16.60
2023-02-22T14:19:07.402Z,16.50
2023-02-22T14:20:40.564Z,16.50
2023-02-22T14:22:30.813Z,16.30
2023-02-22T14:24:13.604Z,16.20
2023-02-22T14:25:46.586Z,16.20
2023-02-22T14:27:19.918Z,16.10
2023-02-22T14:28:54.368Z,16.10
2023-02-22T14:30:30.652Z,16.00
2023-02-22T14:32:07.533Z,16.00
2023-02-22T14:34:10.578Z,15.90
2023-02-22T14:35:50.076Z,15.90
2023-02-22T14:37:26.443Z,15.90
2023-02-22T14:39:10.380Z,15.70
2023-02-22T14:40:48.348Z,15.70
2023-02-22T14:42:25.659Z,15.60
2023-02-22T14:44:00.480Z,15.60
2023-02-22T14:45:35.242Z,15.60
2023-02-22T14:47:15.028Z,15.50
2023-02-22T14:48:49.682Z,15.50
2023-02-22T14:50:28.327Z,15.40
2023-02-22T14:52:05.920Z,15.40
2023-02-22T14:53:44.554Z,15.30
2023-02-22T14:55:23.352Z,15.30
2023-02-22T14:57:12.835Z,15.30
2023-02-22T14:58:50.687Z,15.30
2023-02-22T15:00:31.114Z,15.30
2023-02-22T15:02:12.938Z,15.20
2023-02-22T15:03:51.348Z,15.70
2023-02-22T15:05:31.131Z,15.40
2023-02-22T15:07:21.385Z,15.40
2023-02-22T15:09:07.769Z,15.40
2023-02-22T15:10:43.762Z,15.50
2023-02-22T15:12:25.747Z,15.50
2023-02-22T15:13:59.480Z,15.50
2023-02-22T15:15:32.579Z,15.60
2023-02-22T15:17:09.274Z,15.60
2023-02-22T15:18:44.429Z,15.70
2023-02-22T15:20:20.712Z,15.70
2023-02-22T15:21:56.753Z,15.80
2023-02-22T15:23:39.970Z,15.90
2023-02-22T15:25:12.883Z,15.90
2023-02-22T15:27:00.183Z,15.90
2023-02-22T15:28:36.617Z,15.90
2023-02-22T15:30:17.946Z,15.80
2023-02-22T15:31:51.333Z,15.80
2023-02-22T15:33:37.998Z,15.80
2023-02-22T15:35:16.681Z,15.70
2023-02-22T15:36:54.432Z,15.50
2023-02-22T15:38:31.196Z,15.80
2023-02-22T15:40:14.432Z,14.90
2023-02-22T15:41:47.430Z,15.50
2023-02-22T15:43:24.116Z,15.40
2023-02-22T15:44:58.129Z,15.20
2023-02-22T15:46:31.747Z,15.20
2023-02-22T15:48:07.737Z,15.10
2023-02-22T15:49:40.686Z,15.10
2023-02-22T15:51:17.182Z,15.00
2023-02-22T15:52:57.860Z,15.00
2023-02-22T15:54:42.069Z,15.00
2023-02-22T15:56:18.300Z,15.00
2023-02-22T15:57:51.962Z,14.90
2023-02-22T15:59:30.526Z,14.90
2023-02-22T16:01:05.634Z,14.90
2023-02-22T16:02:41.615Z,14.80
2023-02-22T16:04:19.103Z,14.70
2023-02-22T16:05:55.596Z,14.70
2023-02-22T16:07:29.223Z,14.60
2023-02-22T16:09:08.822Z,14.60
2023-02-22T16:10:48.874Z,14.50
2023-02-22T16:12:27.359Z,14.40
2023-02-22T16:14:04.855Z,14.40
2023-02-22T16:15:38.483Z,14.30
2023-02-22T16:17:31.717Z,14.30
2023-02-22T16:19:31.256Z,14.30
2023-02-22T16:21:11.873Z,14.10
2023-02-22T16:22:49.134Z,14.10
2023-02-22T16:24:29.640Z,14.10
2023-02-22T16:26:07.418Z,14.00
2023-02-22T16:27:47.364Z,14.00
2023-02-22T16:29:27.748Z,13.90
2023-02-22T16:31:01.643Z,13.80
2023-02-22T16:32:34.754Z,14.10
2023-02-22T16:34:09.159Z,13.20
2023-02-22T16:35:51.692Z,13.70
2023-02-22T16:37:24.862Z,13.70
2023-02-22T16:38:57.859Z,13.60
2023-02-22T16:40:34.983Z,13.60
2023-02-22T16:42:10.416Z,13.60
2023-02-22T16:43:46.269Z,13.60
2023-02-22T16:45:20.892Z,13.60
2023-02-22T16:46:53.873Z,13.50
2023-02-22T16:48:29.877Z,13.50
2023-02-22T16:50:02.822Z,13.50
2023-02-22T16:51:44.812Z,13.50
2023-02-22T16:53:20.589Z,13.40
2023-02-22T16:54:53.607Z,13.40
2023-02-22T16:56:31.163Z,13.40
2023-02-22T16:58:05.919Z,13.40
2023-02-22T16:59:40.811Z,13.30
2023-02-22T17:01:13.744Z,13.30
2023-02-22T17:02:46.769Z,13.30
2023-02-22T17:04:21.980Z,13.30
2023-02-22T17:05:55.198Z,13.20
2023-02-22T17:07:30.758Z,13.20
2023-02-22T17:09:03.781Z,13.10
2023-02-22T17:10:37.189Z,13.20
2023-02-22T17:12:10.693Z,13.10
2023-02-22T17:13:45.696Z,13.10
2023-02-22T17:15:22.648Z,13.10
2023-02-22T17:16:55.662Z,13.10
2023-02-22T17:18:33.934Z,13.10
2023-02-22T17:20:11.486Z,13.10
2023-02-22T17:21:44.482Z,13.00
2023-02-22T17:23:17.812Z,13.00
2023-02-22T17:24:50.555Z,13.00
2023-02-22T17:26:26.145Z,13.00
2023-02-22T17:27:59.106Z,13.00
2023-02-22T17:29:33.417Z,12.90
2023-02-22T17:31:07.346Z,13.00
2023-02-22T17:32:40.378Z,13.00
2023-02-22T17:34:13.321Z,12.90
2023-02-22T17:35:46.897Z,13.00
2023-02-22T17:37:19.777Z,12.90
2023-02-22T17:38:52.707Z,12.90
2023-02-22T17:40:25.705Z,12.90
2023-02-22T17:41:58.941Z,12.90
2023-02-22T17:43:31.939Z,12.90
2023-02-22T17:45:06.868Z,12.90
2023-02-22T17:46:41.738Z,12.90
2023-02-22T17:48:16.120Z,12.90
2023-02-22T17:49:49.056Z,12.90
2023-02-22T17:51:22.776Z,12.90
2023-02-22T17:52:55.729Z,12.80
2023-02-22T17:54:30.414Z,12.90
2023-02-22T17:56:07.396Z,12.80
2023-02-22T17:57:44.063Z,12.80
2023-02-22T17:59:16.993Z,12.80
2023-02-22T18:00:51.696Z,12.00
2023-02-22T18:02:24.817Z,12.70
2023-02-22T18:04:01.767Z,12.70
2023-02-22T18:08:23.688Z,12.60
2023-02-22T18:09:56.624Z,12.60
2023-02-22T18:11:32.605Z,12.50
2023-02-22T18:13:05.590Z,12.40
2023-02-22T18:14:37.881Z,12.40
2023-02-22T18:16:12.289Z,12.40
2023-02-22T18:17:46.602Z,12.30
2023-02-22T18:19:22.094Z,12.20
2023-02-22T18:20:59.601Z,12.20
2023-02-22T18:22:33.497Z,12.10
2023-02-22T18:24:06.928Z,12.10
2023-02-22T18:25:40.454Z,12.10
2023-02-22T18:27:14.783Z,12.00
2023-02-22T18:28:49.096Z,12.00
2023-02-22T18:30:22.240Z,12.00
2023-02-22T18:31:57.277Z,12.00
2023-02-22T18:33:30.172Z,12.00
2023-02-22T18:35:03.361Z,11.90
2023-02-22T18:36:36.302Z,11.90
2023-02-22T18:38:11.498Z,11.90
2023-02-22T18:39:45.191Z,11.90
2023-02-22T18:41:20.044Z,11.90
2023-02-22T18:42:52.987Z,11.90
2023-02-22T18:44:27.049Z,11.90
2023-02-22T18:46:06.542Z,11.80
2023-02-22T18:47:42.264Z,11.80
2023-02-22T18:49:15.343Z,11.80
2023-02-22T18:50:48.221Z,11.80
2023-02-22T18:52:21.094Z,11.80
2023-02-22T18:53:57.634Z,11.70
2023-02-22T18:55:30.530Z,11.70
2023-02-22T18:57:03.493Z,11.70
2023-02-22T18:58:38.630Z,11.60
2023-02-22T19:00:13.930Z,11.70
2023-02-22T19:01:49.181Z,11.60
2023-02-22T19:03:23.686Z,12.00
2023-02-22T19:04:57.644Z,11.50
2023-02-22T19:06:30.573Z,11.50
2023-02-22T19:08:04.104Z,11.40
2023-02-22T19:09:37.379Z,11.40
2023-02-22T19:11:12.740Z,11.30
2023-02-22T19:12:45.644Z,11.30
2023-02-22T19:14:19.480Z,11.20
2023-02-22T19:15:52.468Z,11.20
2023-02-22T19:17:24.612Z,11.20
2023-02-22T19:18:59.460Z,11.20
2023-02-22T19:20:33.313Z,11.20
2023-02-22T19:22:06.314Z,11.10
2023-02-22T19:23:45.363Z,11.10
2023-02-22T19:25:18.548Z,10.90
2023-02-22T19:26:50.672Z,11.10
2023-02-22T19:28:34.079Z,11.20
2023-02-22T19:30:09.222Z,11.10
2023-02-22T19:31:43.413Z,11.10
2023-02-22T19:33:16.359Z,11.10
2023-02-22T19:35:01.925Z,11.10
2023-02-22T19:36:35.201Z,11.10
2023-02-22T19:38:08.126Z,11.00
2023-02-22T19:39:42.264Z,11.00
2023-02-22T19:41:18.447Z,11.00
2023-02-22T19:42:53.923Z,10.90
2023-02-22T19:44:28.078Z,10.90
2023-02-22T19:46:04.754Z,10.90
2023-02-22T19:47:38.698Z,10.90
2023-02-22T19:49:11.647Z,10.90
2023-02-22T19:50:49.406Z,10.80
2023-02-22T19:52:22.292Z,10.80
2023-02-22T19:53:58.120Z,10.80
2023-02-22T19:55:32.297Z,10.80
2023-02-22T19:57:05.928Z,10.80
2023-02-22T19:59:48.053Z,10.80
2023-02-22T20:01:23.428Z,10.70
2023-02-22T20:03:05.654Z,10.70
2023-02-22T20:04:38.776Z,10.70
2023-02-22T20:06:16.547Z,10.60
2023-02-22T20:07:49.515Z,10.60
2023-02-22T20:09:29.744Z,10.60
2023-02-22T20:11:02.699Z,10.60
2023-02-22T20:12:35.997Z,10.50
2023-02-22T20:14:19.261Z,10.50
2023-02-22T20:15:53.343Z,10.50
2023-02-22T20:17:26.577Z,10.50
2023-02-22T20:19:00.327Z,10.40
2023-02-22T20:20:33.525Z,10.40
2023-02-22T20:22:07.767Z,10.40
2023-02-22T20:23:44.184Z,10.40
2023-02-22T20:25:17.320Z,10.40
2023-02-22T20:26:51.176Z,10.40
2023-02-22T20:28:24.794Z,10.40
2023-02-22T20:29:57.786Z,10.40
2023-02-22T20:31:31.197Z,10.40
2023-02-22T20:33:04.161Z,10.40
2023-02-22T20:34:37.225Z,10.40
2023-02-22T20:36:11.546Z,10.40
2023-02-22T20:37:45.786Z,10.40
2023-02-22T20:39:18.972Z,10.40
2023-02-22T20:40:51.893Z,10.30
2023-02-22T20:42:24.747Z,10.30
2023-02-22T20:43:58.688Z,10.40
2023-02-22T20:45:32.406Z,10.40
2023-02-22T20:47:05.510Z,10.40
2023-02-22T20:48:38.460Z,10.40
2023-02-22T20:50:11.487Z,10.30
2023-02-22T20:51:44.629Z,10.30
2023-02-22T20:53:18.855Z,10.30
2023-02-22T20:54:51.809Z,10.30
2023-02-22T20:56:25.543Z,10.30
2023-02-22T20:57:58.506Z,10.20
2023-02-22T20:59:31.407Z,10.20
2023-02-22T21:01:05.319Z,9.80
2023-02-22T21:02:38.374Z,10.10
2023-02-22T21:04:12.267Z,10.10
2023-02-22T21:05:45.528Z,10.10
2023-02-22T21:07:18.516Z,10.10
2023-02-22T21:08:54.634Z,10.10
2023-02-22T21:10:27.555Z,10.00
2023-02-22T21:12:00.528Z,10.00
2023-02-22T21:13:33.417Z,10.00
2023-02-22T21:15:07.638Z,10.00
2023-02-22T21:16:40.593Z,10.00
2023-02-22T21:18:13.142Z,10.00
2023-02-22T21:19:46.116Z,9.90